Time;durP1;ratioP1;P1;durP2;ratioP2;P2;SDS_P1;SDS_P2;PMS_P1;PMS_P2;Temp;Humidity;BMP_temperature;BMP_pressure;BME280_temperature;BME280_humidity;BME280_pressure;Samples;Min_cycle;Max_cycle;Signal;HPM_P1;HPM_P2
2022/10/25 00:00:29;;;;;;;4.60;1.10;;;17.00;99.90;;;;;;5056022;28;20920;-80
2022/10/25 00:02:55;;;;;;;4.40;1.10;;;17.00;99.90;;;;;;5051004;28;20526;-80
2022/10/25 00:05:21;;;;;;;2.93;0.70;;;16.90;99.90;;;;;;5015638;28;20202;-81
2022/10/25 00:07:46;;;;;;;2.70;0.90;;;16.90;99.90;;;;;;5029793;28;20276;-82
2022/10/25 00:10:12;;;;;;;4.00;1.13;;;16.90;99.90;;;;;;5034919;28;20162;-80
2022/10/25 00:12:42;;;;;;;2.60;0.80;;;16.80;99.90;;;;;;5034566;28;20158;-80
2022/10/25 00:15:09;;;;;;;2.73;0.87;;;16.80;99.90;;;;;;5001024;28;20188;-80
2022/10/25 00:17:35;;;;;;;3.60;0.93;;;16.80;99.90;;;;;;5016771;28;21233;-80
2022/10/25 00:20:00;;;;;;;4.27;0.80;;;16.70;99.90;;;;;;5034161;28;20576;-81
2022/10/25 00:22:29;;;;;;;2.33;0.90;;;16.70;99.90;;;;;;5033882;28;20260;-80
2022/10/25 00:24:55;;;;;;;2.13;0.70;;;16.70;99.90;;;;;;5034048;28;20611;-80
2022/10/25 00:27:21;;;;;;;3.27;0.80;;;16.60;99.90;;;;;;5033728;28;20674;-79
2022/10/25 00:29:46;;;;;;;3.97;1.00;;;16.60;99.90;;;;;;5033825;28;20527;-80
2022/10/25 00:32:12;;;;;;;3.87;1.00;;;16.60;99.90;;;;;;5033626;28;20166;-81
2022/10/25 00:34:40;;;;;;;3.10;0.90;;;16.50;99.90;;;;;;5033946;28;20669;-81
2022/10/25 00:37:06;;;;;;;2.93;1.00;;;16.50;99.90;;;;;;5039598;28;20658;-84
2022/10/25 00:39:32;;;;;;;4.13;1.10;;;16.50;99.90;;;;;;5033693;28;20580;-81
2022/10/25 00:41:58;;;;;;;4.03;0.80;;;16.50;99.90;;;;;;5015474;28;20181;-80
2022/10/25 00:44:38;;;;;;;3.03;1.00;;;16.50;99.90;;;;;;5015970;28;20201;-80
2022/10/25 00:47:24;;;;;;;2.47;0.87;;;16.40;99.90;;;;;;5015474;28;20201;-79
2022/10/25 00:50:12;;;;;;;2.83;0.70;;;16.40;99.90;;;;;;5033502;28;20564;-79
2022/10/25 00:52:39;;;;;;;2.30;0.80;;;16.40;99.90;;;;;;5033142;28;20577;-79
2022/10/25 00:55:07;;;;;;;5.27;1.00;;;16.40;99.90;;;;;;5033617;28;20561;-80
2022/10/25 00:57:40;;;;;;;3.70;1.50;;;16.40;99.90;;;;;;5033059;28;20592;-80
2022/10/25 01:00:07;;;;;;;3.20;1.20;;;16.30;99.90;;;;;;5015852;28;20596;-80
2022/10/25 01:02:33;;;;;;;2.43;0.90;;;16.40;99.90;;;;;;5032847;28;20675;-80
2022/10/25 01:04:59;;;;;;;3.10;0.80;;;16.30;99.90;;;;;;5033062;28;20976;-80
2022/10/25 01:07:25;;;;;;;4.53;1.23;;;16.30;99.90;;;;;;5033116;28;20930;-80
2022/10/25 01:09:52;;;;;;;2.37;0.70;;;16.30;99.90;;;;;;5033023;28;20576;-79
2022/10/25 01:12:17;;;;;;;6.63;1.00;;;16.30;99.90;;;;;;5032861;28;20221;-79
2022/10/25 01:14:47;;;;;;;2.30;0.70;;;16.30;99.90;;;;;;5038146;28;20573;-80
2022/10/25 01:17:26;;;;;;;3.70;0.70;;;16.30;99.90;;;;;;4999281;28;20643;-80
2022/10/25 01:20:34;;;;;;;3.20;0.80;;;16.30;99.90;;;;;;5033214;28;20616;-80
2022/10/25 01:23:21;;;;;;;3.13;0.80;;;16.30;99.90;;;;;;4999495;28;20662;-80
2022/10/25 01:26:16;;;;;;;4.67;1.53;;;16.20;99.90;;;;;;5015114;28;20979;-80
2022/10/25 01:28:56;;;;;;;3.97;0.77;;;16.30;99.90;;;;;;5015089;28;20611;-80
2022/10/25 01:31:47;;;;;;;1.80;0.60;;;16.30;99.90;;;;;;5032792;28;20576;-80
2022/10/25 01:34:46;;;;;;;3.73;0.77;;;16.20;99.90;;;;;;5032714;28;20611;-80
2022/10/25 01:37:38;;;;;;;2.70;0.80;;;16.20;99.90;;;;;;5003685;28;20605;-79
2022/10/25 01:40:26;;;;;;;4.17;0.97;;;16.20;99.90;;;;;;5032728;28;20572;-81
2022/10/25 01:43:07;;;;;;;2.00;0.70;;;16.20;99.90;;;;;;5014748;28;20938;-79
2022/10/25 01:45:47;;;;;;;4.47;0.70;;;16.20;99.90;;;;;;5032534;28;20619;-79
2022/10/25 01:48:18;;;;;;;1.77;0.63;;;16.10;99.90;;;;;;5014919;28;20608;-80
2022/10/25 01:50:46;;;;;;;2.27;0.60;;;16.10;99.90;;;;;;5037833;28;20561;-80
2022/10/25 01:53:12;;;;;;;4.00;1.00;;;16.10;99.90;;;;;;5032125;28;21131;-80
2022/10/25 01:55:53;;;;;;;2.73;0.70;;;16.10;99.90;;;;;;5032421;28;20564;-80
2022/10/25 01:58:53;;;;;;;3.10;0.70;;;16.10;99.90;;;;;;5032428;28;21174;-79
2022/10/25 02:01:19;;;;;;;2.30;0.60;;;16.00;99.90;;;;;;5032415;28;20557;-81
2022/10/25 02:04:37;;;;;;;7.13;1.07;;;16.00;99.90;;;;;;4997877;28;20580;-80
2022/10/25 02:07:10;;;;;;;1.90;0.70;;;16.00;99.90;;;;;;4984401;28;20677;-81
2022/10/25 02:10:04;;;;;;;2.57;0.70;;;16.00;99.90;;;;;;5032147;28;20564;-81
2022/10/25 02:12:47;;;;;;;3.13;0.80;;;16.00;99.90;;;;;;5025799;28;20581;-81
2022/10/25 02:15:39;;;;;;;4.40;0.90;;;15.90;99.90;;;;;;5014564;28;20560;-81
2022/10/25 02:18:13;;;;;;;4.37;0.80;;;16.00;99.90;;;;;;5026235;28;20619;-82
2022/10/25 02:20:40;;;;;;;3.87;0.97;;;16.00;99.90;;;;;;5014168;28;20576;-82
2022/10/25 02:23:06;;;;;;;2.30;1.00;;;15.90;99.90;;;;;;5013977;28;20599;-82
2022/10/25 02:25:34;;;;;;;2.77;0.70;;;15.90;99.90;;;;;;5014120;28;20640;-81
2022/10/25 02:28:06;;;;;;;2.20;0.70;;;16.00;99.90;;;;;;5018506;28;20644;-82
2022/10/25 02:30:35;;;;;;;2.53;0.80;;;15.90;99.90;;;;;;5014570;28;20695;-81
2022/10/25 02:33:01;;;;;;;3.20;0.80;;;15.90;99.90;;;;;;5013928;28;20568;-82
2022/10/25 02:35:27;;;;;;;2.17;0.70;;;16.00;99.90;;;;;;5014354;28;20638;-81
2022/10/25 02:37:52;;;;;;;1.70;0.67;;;15.90;99.90;;;;;;5031626;28;20607;-80
2022/10/25 02:40:18;;;;;;;1.93;0.60;;;15.90;99.90;;;;;;5031779;28;20678;-81
2022/10/25 02:42:44;;;;;;;3.10;1.00;;;15.90;99.90;;;;;;5014066;28;20228;-81
2022/10/25 02:45:10;;;;;;;3.60;0.70;;;15.90;99.90;;;;;;5031628;28;20647;-81
2022/10/25 02:47:37;;;;;;;4.07;0.80;;;15.90;99.90;;;;;;5010314;28;20237;-81
2022/10/25 02:50:03;;;;;;;4.03;0.83;;;15.90;99.90;;;;;;5010644;28;20573;-81
2022/10/25 02:52:30;;;;;;;2.57;0.80;;;15.80;99.90;;;;;;5011476;28;20213;-82
2022/10/25 02:54:56;;;;;;;2.87;1.20;;;15.80;99.90;;;;;;5011943;28;20565;-81
2022/10/25 02:57:24;;;;;;;3.00;0.70;;;15.90;99.90;;;;;;4994006;28;20665;-81
2022/10/25 02:59:50;;;;;;;2.67;0.80;;;15.80;99.90;;;;;;5011909;28;20577;-81
2022/10/25 03:02:16;;;;;;;2.13;0.80;;;15.80;99.90;;;;;;5011736;28;20919;-81
2022/10/25 03:04:42;;;;;;;3.33;0.80;;;15.90;99.90;;;;;;5015947;28;20248;-82
2022/10/25 03:07:07;;;;;;;2.57;0.70;;;15.90;99.90;;;;;;5011718;28;20178;-82
2022/10/25 03:09:33;;;;;;;3.23;1.00;;;15.90;99.90;;;;;;5011589;28;20631;-82
2022/10/25 03:11:59;;;;;;;3.10;0.90;;;15.90;99.90;;;;;;5011424;28;20729;-82
2022/10/25 03:14:24;;;;;;;2.90;0.77;;;16.00;99.90;;;;;;5010524;28;20170;-82
2022/10/25 03:16:50;;;;;;;3.30;0.80;;;16.00;99.90;;;;;;5011675;28;20186;-82
2022/10/25 03:19:16;;;;;;;3.80;1.20;;;16.10;99.90;;;;;;5011634;28;20177;-82
2022/10/25 03:21:41;;;;;;;3.47;1.10;;;16.10;99.90;;;;;;5011498;28;20218;-83
2022/10/25 03:24:07;;;;;;;3.10;1.00;;;16.10;99.90;;;;;;5011213;28;20178;-82
2022/10/25 03:26:33;;;;;;;4.33;0.90;;;16.20;99.90;;;;;;5010348;28;20197;-82
2022/10/25 03:28:59;;;;;;;4.37;0.70;;;16.20;99.90;;;;;;5010405;28;20653;-82
2022/10/25 03:31:24;;;;;;;3.97;0.90;;;16.20;99.90;;;;;;5011560;28;20646;-80
2022/10/25 03:33:50;;;;;;;3.93;0.80;;;16.20;99.90;;;;;;5010029;28;20221;-81
2022/10/25 03:36:16;;;;;;;3.53;0.80;;;16.30;99.90;;;;;;5011450;28;20659;-81
2022/10/25 03:38:42;;;;;;;2.10;0.70;;;16.30;99.90;;;;;;5014108;28;20202;-80
2022/10/25 03:41:08;;;;;;;3.60;0.70;;;16.30;99.90;;;;;;5015497;28;20588;-81
2022/10/25 03:43:34;;;;;;;2.90;1.33;;;16.30;99.90;;;;;;5016639;28;20182;-81
2022/10/25 03:45:59;;;;;;;2.93;0.70;;;16.30;99.90;;;;;;5013888;28;20205;-81
2022/10/25 03:48:25;;;;;;;5.73;1.07;;;16.30;99.90;;;;;;5015045;28;20609;-82
2022/10/25 03:50:52;;;;;;;5.33;1.00;;;16.30;99.90;;;;;;5013849;28;20174;-80
2022/10/25 03:53:18;;;;;;;3.73;0.93;;;16.30;99.90;;;;;;5013408;28;20616;-81
2022/10/25 03:55:44;;;;;;;2.50;0.73;;;16.20;99.90;;;;;;5028284;28;20595;-81
2022/10/25 03:58:09;;;;;;;3.57;0.73;;;16.20;99.90;;;;;;5000490;28;20198;-80
2022/10/25 04:00:35;;;;;;;2.00;0.73;;;16.20;99.90;;;;;;5034734;28;20596;-81
2022/10/25 04:03:01;;;;;;;5.30;0.90;;;16.20;99.90;;;;;;5034226;28;20174;-81
2022/10/25 04:05:28;;;;;;;4.17;1.27;;;16.10;99.90;;;;;;5016920;28;20209;-81
2022/10/25 04:07:53;;;;;;;3.00;1.00;;;16.10;99.90;;;;;;5034366;28;20649;-81
2022/10/25 04:10:19;;;;;;;4.53;1.13;;;16.10;99.90;;;;;;5033390;28;20572;-82
2022/10/25 04:12:45;;;;;;;2.00;0.70;;;16.10;99.90;;;;;;5000117;28;20649;-81
2022/10/25 04:15:12;;;;;;;4.93;1.30;;;16.10;99.90;;;;;;5016582;28;20648;-81
2022/10/25 04:17:38;;;;;;;2.90;1.03;;;16.10;99.90;;;;;;5033515;28;20715;-82
2022/10/25 04:20:04;;;;;;;3.13;1.10;;;16.10;99.90;;;;;;5037692;28;20662;-83
2022/10/25 04:22:30;;;;;;;4.17;0.90;;;16.00;99.90;;;;;;5032932;28;20525;-81
2022/10/25 04:24:56;;;;;;;4.57;0.80;;;15.90;99.90;;;;;;5034139;28;20686;-81
2022/10/25 04:27:22;;;;;;;2.10;0.83;;;15.90;99.90;;;;;;5034169;28;20197;-81
2022/10/25 04:29:48;;;;;;;4.90;1.23;;;15.80;99.90;;;;;;5033987;28;20579;-79
2022/10/25 04:32:13;;;;;;;2.60;0.97;;;15.80;99.90;;;;;;5033596;28;20562;-80
2022/10/25 04:34:39;;;;;;;3.47;0.90;;;15.70;99.90;;;;;;5033912;28;20511;-80
2022/10/25 04:37:05;;;;;;;2.43;0.80;;;15.70;99.90;;;;;;5033925;28;20189;-81
2022/10/25 04:39:30;;;;;;;4.07;0.80;;;15.60;99.90;;;;;;5032714;28;20165;-81
2022/10/25 04:41:56;;;;;;;3.63;1.00;;;15.60;99.90;;;;;;5032293;28;20518;-80
2022/10/25 04:44:22;;;;;;;2.40;0.80;;;15.60;99.90;;;;;;5033845;28;20198;-81
2022/10/25 04:46:48;;;;;;;3.63;1.00;;;15.60;99.90;;;;;;5033579;28;20194;-80
2022/10/25 04:49:14;;;;;;;3.60;0.77;;;15.60;99.90;;;;;;5032029;28;20174;-80
2022/10/25 04:51:40;;;;;;;2.90;0.80;;;15.60;99.90;;;;;;5033458;28;20165;-81
2022/10/25 04:54:06;;;;;;;3.40;0.80;;;15.60;99.90;;;;;;5033205;28;20568;-80
2022/10/25 04:56:32;;;;;;;3.00;0.80;;;15.50;99.90;;;;;;5021009;28;20656;-81
2022/10/25 04:58:58;;;;;;;2.43;0.80;;;15.50;99.90;;;;;;5033497;28;21041;-81
2022/10/25 05:01:24;;;;;;;3.37;1.00;;;15.60;99.90;;;;;;5033319;28;20565;-81
2022/10/25 05:03:50;;;;;;;5.33;0.80;;;15.60;99.90;;;;;;5033207;28;21135;-82
2022/10/25 05:06:22;;;;;;;3.30;0.80;;;15.60;99.90;;;;;;5033361;28;20205;-81
2022/10/25 05:08:49;;;;;;;3.63;0.97;;;15.60;99.90;;;;;;5032107;28;20608;-80
2022/10/25 05:11:17;;;;;;;3.83;1.00;;;15.60;99.90;;;;;;5033193;28;20918;-80
2022/10/25 05:13:45;;;;;;;2.50;0.80;;;15.60;99.90;;;;;;5033244;28;20953;-80
2022/10/25 05:16:16;;;;;;;2.50;0.77;;;15.60;99.90;;;;;;5032096;28;20580;-82
2022/10/25 05:18:44;;;;;;;3.30;0.93;;;15.60;99.90;;;;;;5015883;28;20635;-81
2022/10/25 05:21:11;;;;;;;2.80;1.00;;;15.60;99.90;;;;;;5033551;28;20573;-80
2022/10/25 05:23:37;;;;;;;3.03;0.80;;;15.60;99.90;;;;;;5031765;28;20655;-81
2022/10/25 05:26:18;;;;;;;2.20;0.80;;;15.60;99.90;;;;;;5033527;28;21049;-81
2022/10/25 05:28:45;;;;;;;5.47;0.80;;;15.60;99.90;;;;;;5033301;28;20686;-81
2022/10/25 05:31:23;;;;;;;1.97;0.80;;;15.60;99.90;;;;;;5017869;28;20573;-81
2022/10/25 05:33:51;;;;;;;6.47;1.10;;;15.60;99.90;;;;;;5038915;28;20946;-80
2022/10/25 05:36:17;;;;;;;4.47;1.00;;;15.60;99.90;;;;;;5032336;28;20910;-81
2022/10/25 05:38:43;;;;;;;5.07;1.00;;;15.50;99.90;;;;;;5032172;28;20600;-81
2022/10/25 05:41:10;;;;;;;2.70;0.90;;;15.50;99.90;;;;;;5016525;28;20634;-81
2022/10/25 05:43:36;;;;;;;3.63;0.90;;;15.50;99.90;;;;;;5032971;28;20265;-81
2022/10/25 05:46:11;;;;;;;3.10;0.90;;;15.50;99.90;;;;;;5034441;28;20707;-80
2022/10/25 05:48:37;;;;;;;4.40;0.90;;;15.40;99.90;;;;;;5015250;28;20615;-81
2022/10/25 05:51:15;;;;;;;4.97;1.07;;;15.40;99.90;;;;;;5032555;28;20648;-80
2022/10/25 05:53:43;;;;;;;6.20;1.10;;;15.40;99.90;;;;;;5032318;28;20568;-81
2022/10/25 05:56:10;;;;;;;3.80;1.20;;;15.30;99.90;;;;;;5033411;28;20583;-80
2022/10/25 05:58:36;;;;;;;5.67;1.00;;;15.30;99.90;;;;;;5034561;28;20588;-80
2022/10/25 06:01:01;;;;;;;4.93;1.30;;;15.30;99.90;;;;;;5001571;28;20604;-80
2022/10/25 06:03:27;;;;;;;4.57;0.80;;;15.20;99.90;;;;;;5017493;28;20692;-80
2022/10/25 06:05:53;;;;;;;3.20;0.97;;;15.20;99.90;;;;;;4994710;28;20617;-80
2022/10/25 06:08:19;;;;;;;4.50;0.90;;;15.20;99.90;;;;;;5011475;28;20269;-81
2022/10/25 06:10:45;;;;;;;3.23;0.80;;;15.20;99.90;;;;;;5015658;28;20664;-81
2022/10/25 06:13:10;;;;;;;4.10;0.90;;;15.10;99.90;;;;;;5012275;28;20159;-81
2022/10/25 06:15:37;;;;;;;4.47;0.90;;;15.10;99.90;;;;;;4980004;28;20174;-85
2022/10/25 06:18:03;;;;;;;3.20;0.83;;;15.10;99.90;;;;;;4994841;28;20202;-85
2022/10/25 06:20:30;;;;;;;5.00;1.37;;;15.10;99.90;;;;;;5029892;22;20669;-78
2022/10/25 06:22:55;;;;;;;6.93;1.00;;;15.10;99.90;;;;;;4996761;28;21213;-77
2022/10/25 06:25:21;;;;;;;2.10;0.70;;;15.10;99.90;;;;;;5031715;28;20680;-77
2022/10/25 06:27:47;;;;;;;3.80;0.90;;;15.10;99.90;;;;;;5031697;28;20169;-77
2022/10/25 06:30:13;;;;;;;3.00;0.90;;;15.10;99.90;;;;;;5031700;28;20193;-77
2022/10/25 06:32:38;;;;;;;5.20;1.30;;;15.00;99.90;;;;;;5015263;28;20205;-76
2022/10/25 06:35:05;;;;;;;3.90;1.10;;;15.10;99.90;;;;;;5033937;28;20536;-77
2022/10/25 06:37:30;;;;;;;4.80;0.90;;;15.10;99.90;;;;;;5006256;28;20277;-77
2022/10/25 06:39:56;;;;;;;2.77;0.83;;;15.10;99.90;;;;;;5031682;28;20667;-77
2022/10/25 06:42:22;;;;;;;2.10;0.93;;;15.10;99.90;;;;;;5063110;28;20199;-77
2022/10/25 06:44:47;;;;;;;3.70;0.83;;;15.10;99.90;;;;;;5062804;28;20196;-77
2022/10/25 06:47:13;;;;;;;5.47;0.90;;;15.20;99.90;;;;;;5071603;28;20202;-77
2022/10/25 06:49:39;;;;;;;3.50;0.93;;;15.20;99.90;;;;;;5071464;28;20192;-77
2022/10/25 06:52:05;;;;;;;4.53;1.20;;;15.30;99.90;;;;;;5052681;28;20195;-77
2022/10/25 06:54:30;;;;;;;4.47;0.90;;;15.30;99.90;;;;;;5053338;28;20172;-77
2022/10/25 06:56:57;;;;;;;5.70;1.30;;;15.40;99.90;;;;;;5071321;28;20180;-76
2022/10/25 06:59:23;;;;;;;4.57;1.10;;;15.40;99.90;;;;;;5036628;28;20175;-77
2022/10/25 07:01:49;;;;;;;5.20;1.10;;;15.50;99.90;;;;;;5035699;28;20610;-77
2022/10/25 07:04:15;;;;;;;3.40;1.13;;;15.60;99.90;;;;;;5035876;28;20735;-77
2022/10/25 07:06:41;;;;;;;4.07;1.30;;;15.60;99.90;;;;;;5036412;28;20705;-77
2022/10/25 07:09:12;;;;;;;6.80;1.33;;;15.70;99.90;;;;;;5016148;28;21279;-77
2022/10/25 07:11:39;;;;;;;3.93;1.10;;;15.70;99.90;;;;;;5069457;28;20596;-77
2022/10/25 07:14:05;;;;;;;5.50;1.07;;;15.80;99.90;;;;;;5053030;28;20567;-76
2022/10/25 07:16:31;;;;;;;4.70;1.23;;;15.80;99.90;;;;;;5037863;28;20607;-76
2022/10/25 07:18:58;;;;;;;4.17;1.17;;;15.90;99.90;;;;;;5052239;28;20189;-76
2022/10/25 07:21:24;;;;;;;3.90;1.17;;;15.90;99.90;;;;;;5061249;28;20621;-76
2022/10/25 07:23:50;;;;;;;3.33;1.13;;;16.00;99.90;;;;;;5052841;28;20578;-77
2022/10/25 07:26:29;;;;;;;3.43;1.00;;;16.20;99.90;;;;;;5062070;28;20729;-76
2022/10/25 07:28:56;;;;;;;3.10;1.40;;;16.20;99.90;;;;;;5052321;28;20935;-78
2022/10/25 07:31:25;;;;;;;5.00;1.03;;;16.40;99.90;;;;;;5043448;28;20660;-78
2022/10/25 07:33:52;;;;;;;2.27;1.10;;;16.50;99.90;;;;;;5060034;28;20605;-79
2022/10/25 07:36:18;;;;;;;4.73;1.50;;;16.60;99.90;;;;;;5059273;28;20607;-78
2022/10/25 07:38:45;;;;;;;3.93;1.67;;;16.70;99.90;;;;;;5034948;28;20810;-78
2022/10/25 07:41:11;;;;;;;4.00;1.20;;;16.80;99.90;;;;;;5054556;28;20603;-78
2022/10/25 07:43:37;;;;;;;4.80;1.50;;;16.80;99.90;;;;;;5054458;28;20649;-78
2022/10/25 07:46:04;;;;;;;4.33;1.37;;;16.90;99.90;;;;;;5054654;28;20680;-78
2022/10/25 07:48:30;;;;;;;5.03;1.20;;;16.90;99.90;;;;;;5071641;28;20666;-77
2022/10/25 07:50:56;;;;;;;4.93;1.77;;;16.90;99.90;;;;;;5054678;28;20697;-78
2022/10/25 07:53:21;;;;;;;3.57;1.20;;;16.90;99.90;;;;;;5054621;28;20605;-78
2022/10/25 07:55:51;;;;;;;2.73;1.20;;;16.90;99.90;;;;;;5054716;28;20191;-78
2022/10/25 07:58:18;;;;;;;4.57;1.50;;;16.90;99.90;;;;;;5054905;28;20176;-78
2022/10/25 08:00:44;;;;;;;3.17;1.17;;;16.90;99.90;;;;;;5054337;28;20610;-78
2022/10/25 08:03:10;;;;;;;5.00;1.20;;;17.00;99.90;;;;;;5053666;28;20615;-79
2022/10/25 08:05:36;;;;;;;9.27;1.13;;;17.10;99.90;;;;;;5053924;28;20684;-77
2022/10/25 08:08:04;;;;;;;3.27;1.40;;;17.30;99.90;;;;;;5036363;28;20590;-76
2022/10/25 08:10:30;;;;;;;4.37;1.30;;;17.50;99.90;;;;;;5052884;28;20530;-78
2022/10/25 08:12:56;;;;;;;3.27;1.00;;;17.70;99.90;;;;;;5053958;28;20571;-77
2022/10/25 08:15:22;;;;;;;2.30;1.03;;;17.90;99.90;;;;;;5054334;28;20982;-77
2022/10/25 08:17:55;;;;;;;2.40;1.20;;;18.20;99.90;;;;;;5054357;28;20614;-77
2022/10/25 08:20:21;;;;;;;2.53;1.00;;;18.30;99.90;;;;;;5051467;28;20634;-77
2022/10/25 08:22:46;;;;;;;2.40;1.03;;;18.50;99.90;;;;;;5051596;28;20596;-78
2022/10/25 08:25:12;;;;;;;3.97;1.37;;;18.70;99.90;;;;;;5053351;28;20263;-77
2022/10/25 08:27:40;;;;;;;2.67;1.30;;;19.00;99.90;;;;;;5042757;28;20545;-77
2022/10/25 08:30:06;;;;;;;4.00;1.20;;;19.10;99.90;;;;;;5039007;28;20182;-78
2022/10/25 08:32:36;;;;;;;3.27;0.90;;;19.20;99.90;;;;;;5031802;28;20576;-78
2022/10/25 08:35:02;;;;;;;3.90;1.37;;;19.20;99.90;;;;;;5033883;28;20658;-77
2022/10/25 08:37:28;;;;;;;4.03;1.23;;;19.20;99.90;;;;;;5019358;28;20591;-79
2022/10/25 08:39:54;;;;;;;5.07;2.30;;;19.20;99.90;;;;;;5035863;28;20590;-78
2022/10/25 08:42:56;;;;;;;5.13;1.43;;;19.30;99.90;;;;;;5051967;28;20200;-78
2022/10/25 08:45:27;;;;;;;4.30;0.93;;;19.20;99.90;;;;;;5053300;28;20626;-78
2022/10/25 08:47:57;;;;;;;4.20;1.40;;;19.30;99.90;;;;;;5035912;28;20571;-78
2022/10/25 08:50:36;;;;;;;2.93;1.17;;;19.30;99.90;;;;;;5053539;28;20599;-77
2022/10/25 08:53:07;;;;;;;4.50;1.47;;;19.40;99.90;;;;;;5034028;28;20582;-77
2022/10/25 08:55:41;;;;;;;3.43;1.07;;;19.60;99.90;;;;;;5053188;28;20568;-80
2022/10/25 08:58:30;;;;;;;2.27;1.20;;;19.70;99.90;;;;;;5053676;28;20568;-77
2022/10/25 09:01:00;;;;;;;4.13;0.80;;;20.00;99.90;;;;;;5024850;28;21072;-77
2022/10/25 09:03:26;;;;;;;3.97;1.23;;;20.40;99.90;;;;;;5055381;28;20919;-77
2022/10/25 09:05:55;;;;;;;3.83;1.03;;;20.70;99.90;;;;;;5053169;28;20660;-77
2022/10/25 09:08:59;;;;;;;3.60;0.87;;;20.90;99.90;;;;;;5052162;28;20675;-77
2022/10/25 09:11:36;;;;;;;6.20;1.30;;;21.20;99.90;;;;;;5006101;28;20630;-77
2022/10/25 09:14:11;;;;;;;4.03;1.00;;;21.80;99.90;;;;;;5044346;28;20682;-77
2022/10/25 09:16:48;;;;;;;3.60;1.23;;;22.30;99.90;;;;;;5037469;28;20618;-77
2022/10/25 09:19:20;;;;;;;4.63;1.00;;;22.70;99.90;;;;;;5053726;28;20598;-77
2022/10/25 09:21:54;;;;;;;2.23;0.80;;;23.00;99.90;;;;;;5052165;28;20720;-77
2022/10/25 09:24:43;;;;;;;2.10;0.70;;;23.50;99.90;;;;;;5043516;28;21084;-77
2022/10/25 09:27:22;;;;;;;2.60;1.00;;;24.00;99.90;;;;;;5070285;28;20654;-77
2022/10/25 09:30:00;;;;;;;3.40;1.03;;;24.30;99.90;;;;;;5057458;28;20583;-77
2022/10/25 09:32:44;;;;;;;2.57;0.80;;;24.30;99.90;;;;;;5060762;28;20586;-78
2022/10/25 09:35:21;;;;;;;3.30;1.07;;;24.40;99.90;;;;;;5052953;28;20575;-77
2022/10/25 09:37:50;;;;;;;3.13;0.80;;;24.30;99.90;;;;;;5052801;28;20563;-77
2022/10/25 09:40:24;;;;;;;2.83;1.33;;;24.20;99.90;;;;;;5039830;28;20625;-77
2022/10/25 09:43:01;;;;;;;3.00;0.90;;;24.00;99.90;;;;;;5052428;28;20574;-77
2022/10/25 09:45:43;;;;;;;2.53;0.90;;;23.80;99.90;;;;;;5034851;28;20649;-77
2022/10/25 09:48:29;;;;;;;6.00;1.10;;;23.50;99.90;;;;;;5052733;28;20617;-77
2022/10/25 09:51:13;;;;;;;2.13;0.70;;;23.20;99.90;;;;;;5052566;28;20594;-77
2022/10/25 09:53:42;;;;;;;4.43;1.03;;;22.90;99.90;;;;;;5051244;28;20568;-77
2022/10/25 09:56:07;;;;;;;2.30;0.80;;;22.70;99.90;;;;;;5034953;28;21227;-77
2022/10/25 09:58:38;;;;;;;3.70;1.10;;;22.40;99.90;;;;;;5051335;28;20568;-77
2022/10/25 10:01:15;;;;;;;4.27;0.70;;;22.10;99.90;;;;;;5052285;28;20211;-77
2022/10/25 10:03:41;;;;;;;3.40;0.80;;;21.90;99.90;;;;;;5046711;28;20629;-77
2022/10/25 10:06:24;;;;;;;8.00;0.80;;;21.70;99.90;;;;;;5063894;28;21003;-77
2022/10/25 10:09:09;;;;;;;2.70;0.70;;;21.40;99.90;;;;;;5072198;28;20562;-77
2022/10/25 10:11:35;;;;;;;4.03;0.70;;;21.20;99.90;;;;;;5069175;28;20953;-76
2022/10/25 10:14:25;;;;;;;3.37;0.70;;;21.00;99.90;;;;;;5055074;28;20634;-77
2022/10/25 10:16:55;;;;;;;1.50;0.70;;;20.90;99.90;;;;;;5053883;28;20582;-77
2022/10/25 10:19:23;;;;;;;3.40;0.70;;;20.80;99.90;;;;;;5050191;28;20642;-77
2022/10/25 10:22:00;;;;;;;4.07;0.90;;;20.70;99.90;;;;;;5055325;28;20626;-78
2022/10/25 10:24:30;;;;;;;3.03;0.60;;;20.70;99.90;;;;;;5053454;28;20911;-77
2022/10/25 10:27:05;;;;;;;5.40;1.20;;;20.70;99.90;;;;;;5071810;28;20563;-77
2022/10/25 10:29:35;;;;;;;1.83;0.90;;;20.60;99.90;;;;;;5043412;28;20591;-77
2022/10/25 10:32:23;;;;;;;3.00;0.70;;;20.70;99.90;;;;;;5051290;28;20621;-77
2022/10/25 10:34:57;;;;;;;2.07;0.80;;;20.70;99.90;;;;;;5031690;28;20646;-79
2022/10/25 10:37:30;;;;;;;2.00;0.80;;;20.70;99.90;;;;;;5053995;28;20603;-76
2022/10/25 10:40:00;;;;;;;4.50;1.07;;;20.70;99.90;;;;;;5044150;28;20938;-76
2022/10/25 10:42:33;;;;;;;2.00;0.70;;;20.70;99.90;;;;;;5051788;28;20929;-79
2022/10/25 10:45:08;;;;;;;4.17;0.90;;;20.70;99.90;;;;;;5055130;28;20631;-79
2022/10/25 10:47:49;;;;;;;2.93;0.90;;;20.70;99.90;;;;;;5021414;28;20592;-79
2022/10/25 10:50:24;;;;;;;3.60;0.80;;;20.80;99.90;;;;;;5063655;28;20579;-78
2022/10/25 10:53:28;;;;;;;3.10;1.20;;;20.80;99.90;;;;;;5050868;28;20566;-77
2022/10/25 10:56:00;;;;;;;4.73;1.00;;;20.90;99.90;;;;;;4969984;28;20594;-78
2022/10/25 10:58:30;;;;;;;6.47;1.57;;;21.00;99.90;;;;;;5039537;28;20575;-78
2022/10/25 11:01:03;;;;;;;2.40;1.00;;;21.00;99.90;;;;;;5050901;28;20772;-78
2022/10/25 11:03:41;;;;;;;4.03;1.03;;;21.10;99.90;;;;;;5050754;28;20946;-79
2022/10/25 11:06:23;;;;;;;3.57;0.80;;;21.00;99.90;;;;;;5049702;28;20630;-78
2022/10/25 11:09:22;;;;;;;3.37;0.87;;;21.10;99.90;;;;;;5033003;28;21398;-79
2022/10/25 11:12:10;;;;;;;4.10;0.70;;;21.20;99.90;;;;;;5050390;28;20619;-78
2022/10/25 11:14:36;;;;;;;4.43;2.40;;;21.30;99.90;;;;;;5033277;28;20626;-79
2022/10/25 11:17:13;;;;;;;4.17;0.90;;;21.50;99.90;;;;;;5050903;28;20568;-79
2022/10/25 11:20:29;;;;;;;2.30;0.73;;;21.60;99.90;;;;;;5051138;28;21076;-78
2022/10/25 11:22:55;;;;;;;2.40;0.80;;;21.90;99.90;;;;;;5019702;28;20592;-79
2022/10/25 11:25:33;;;;;;;2.63;0.80;;;22.20;99.90;;;;;;5049644;28;21213;-79
2022/10/25 11:28:21;;;;;;;2.20;0.80;;;22.40;99.90;;;;;;5050988;28;20157;-79
2022/10/25 11:31:20;;;;;;;2.13;0.70;;;22.50;99.90;;;;;;5052887;28;20675;-78
2022/10/25 11:33:57;;;;;;;3.23;1.33;;;22.60;99.90;;;;;;5055427;28;20644;-79
2022/10/25 11:36:33;;;;;;;2.17;0.50;;;22.70;99.90;;;;;;5058902;28;20572;-78
2022/10/25 11:39:36;;;;;;;1.80;0.67;;;22.80;99.90;;;;;;5052310;28;20562;-77
2022/10/25 11:42:34;;;;;;;2.70;0.50;;;22.80;99.90;;;;;;5059398;28;20606;-77
2022/10/25 11:44:59;;;;;;;3.93;0.93;;;22.90;99.90;;;;;;4999888;28;20725;-77
2022/10/25 11:47:31;;;;;;;1.87;0.53;;;23.00;99.90;;;;;;5033919;28;20718;-77
2022/10/25 11:50:33;;;;;;;3.23;0.80;;;23.00;99.90;;;;;;5034165;28;20222;-78
2022/10/25 11:53:09;;;;;;;3.90;0.80;;;22.90;99.90;;;;;;5056741;28;20602;-77
2022/10/25 11:55:54;;;;;;;4.60;0.83;;;23.00;99.90;;;;;;5059139;28;20563;-77
2022/10/25 11:58:47;;;;;;;2.17;0.70;;;22.90;99.90;;;;;;5056739;28;20579;-78
2022/10/25 12:01:34;;;;;;;4.07;0.70;;;22.90;99.90;;;;;;5055362;28;20756;-78
2022/10/25 12:04:11;;;;;;;1.30;0.50;;;22.90;99.90;;;;;;5061262;28;20700;-78
2022/10/25 12:07:23;;;;;;;1.93;0.57;;;22.80;99.90;;;;;;5054115;28;20623;-77
2022/10/25 12:10:19;;;;;;;3.20;0.60;;;22.80;99.90;;;;;;5038174;28;20595;-77
2022/10/25 12:12:57;;;;;;;3.13;0.60;;;22.70;99.90;;;;;;5021026;28;20572;-76
2022/10/25 12:15:46;;;;;;;2.00;0.60;;;22.60;99.90;;;;;;5055021;28;20639;-76
2022/10/25 12:18:40;;;;;;;2.37;0.60;;;22.50;99.90;;;;;;5056144;28;20568;-76
2022/10/25 12:21:10;;;;;;;2.50;0.60;;;22.40;99.90;;;;;;5031896;28;20692;-76
2022/10/25 12:23:42;;;;;;;2.23;0.60;;;22.40;99.90;;;;;;5053973;28;20657;-77
2022/10/25 12:26:19;;;;;;;1.97;0.77;;;22.30;99.90;;;;;;5036379;28;20627;-77
2022/10/25 12:28:47;;;;;;;2.73;0.90;;;22.20;99.90;;;;;;5019899;28;21110;-77
2022/10/25 12:31:20;;;;;;;1.73;0.73;;;22.20;99.90;;;;;;5053786;28;20590;-78
2022/10/25 12:34:10;;;;;;;2.20;0.70;;;22.20;99.90;;;;;;5035997;28;20587;-78
2022/10/25 12:36:40;;;;;;;2.00;0.70;;;22.20;99.90;;;;;;5054212;28;20567;-77
2022/10/25 12:39:26;;;;;;;3.60;1.00;;;22.20;99.90;;;;;;5053776;28;20567;-78
2022/10/25 12:42:01;;;;;;;2.13;0.60;;;22.30;99.90;;;;;;5035579;28;21166;-78
2022/10/25 12:44:57;;;;;;;1.50;0.57;;;22.30;99.90;;;;;;5054188;28;20914;-78
2022/10/25 12:47:36;;;;;;;1.53;0.60;;;22.40;99.90;;;;;;5035989;28;20571;-78
2022/10/25 12:50:29;;;;;;;2.87;0.70;;;22.40;99.90;;;;;;5035747;28;20961;-77
2022/10/25 12:53:40;;;;;;;2.07;0.70;;;22.40;99.90;;;;;;5052931;28;20575;-78
2022/10/25 12:56:47;;;;;;;2.57;0.70;;;22.40;99.90;;;;;;5018894;28;21138;-77
2022/10/25 12:59:19;;;;;;;2.43;0.80;;;22.40;99.90;;;;;;4972408;28;20642;-77
2022/10/25 13:02:13;;;;;;;3.10;1.00;;;22.40;99.90;;;;;;5042919;28;20707;-78
2022/10/25 13:05:39;;;;;;;3.90;1.40;;;22.40;99.90;;;;;;5052105;28;20607;-77
2022/10/25 13:08:06;;;;;;;4.03;1.00;;;22.40;99.90;;;;;;4981349;28;20631;-77
2022/10/25 13:10:40;;;;;;;3.20;1.60;;;22.40;99.90;;;;;;5034574;28;21254;-78
2022/10/25 13:13:20;;;;;;;2.10;0.87;;;22.30;99.90;;;;;;5060769;28;20578;-78
2022/10/25 13:15:56;;;;;;;3.00;0.90;;;22.20;99.90;;;;;;5035297;28;20607;-77